Cabot Strait: Past 24 Hour Conditions

 

Îles de la Madeleine Airport

12:00 PM ADT 27 May 2015
Disclaimer

This table is a summary of hourly weather conditions for the past 24 hours.
Please note that these observations might not always be representative of weather conditions over their associated marine area.

Date / Time
(ADT)
Wind(knots) Conditions Visibility(km) Pressure(kPa) Air tempC) Relative humidity(%) Dew pointC)
27 May 2015
12:00 WNW 10 Mist 8 101.9 13 84 11
11:00 WNW 12 Fog Patches 5 101.8 13 88 11
10:00 W 10 Mostly Cloudy 11 101.8 15 86 13
9:00 WSW 13 Mostly Cloudy 11 101.7 13 88 11
8:00 WSW 11 gust 18 Mostly Cloudy 13 101.7 13 88 11
7:00 WSW 15 Mostly Cloudy 19 101.6 15 86 13
6:00 SW 14 gust 20 Partly Cloudy 16 101.6 12 91 11
5:00 SW 14 gust 20 N/A N/A 101.5 12 100 12
4:00 SSW 12 gust 17 N/A N/A 101.4 12 100 12
3:00 SW 15 N/A N/A 101.4 12 100 12
2:00 SW 16 gust 21 N/A N/A 101.4 13 100 13
1:00 SW 16 gust 22 N/A N/A 101.4 13 100 13
0:00 SW 16 gust 25 N/A N/A 101.4 13 100 13
26 May 2015
23:00 SW 19 gust 27 Mostly Cloudy 16 101.4 14 92 12
22:00 SW 19 gust 25 Mostly Cloudy 16 101.4 13 91 12
21:00 SW 20 gust 28 Mostly Cloudy 16 101.4 14 89 12
20:00 SSW 15 gust 22 Mostly Cloudy 13 101.4 14 93 12
19:00 SSW 13 gust 20 Mostly Cloudy 13 101.4 13 94 12
18:00 SSW 11 gust 20 Mist 6 101.4 10 97 10
17:00 SSW 12 gust 22 Mist 4 101.4 9 98 9
16:00 SSW 13 gust 22 Mist 1 101.4 9 97 9
15:00 SSW 20 gust 33 Light Rain 4 101.5 10 97 10
14:00 SSW 16 gust 32 Light Rain 4 101.5 10 96 9
13:00 S 19 gust 27 Light Rain 5 101.7 11 96 10
12:00 S 13 gust 22 Light Rain 13 101.8 12 90 10

Zoom-in to make a selection

Map of Atlantic - Newfoundland marine weather areas Southwestern Grand Banks - 44138 Banquereau - 44139 Tail of the Bank - 44140 Nickerson Bank - 44251 Northeast Burgeo Bank - 44255 Blanc-Sablon Airport Cap Whittle Chevery Natashquan Airport Heath Point Miscou Island Grand Étang Ingonish Beach North Mountain St.Paul Island J.A. Douglas McCurdy Sydney Airport Charlottetown Airport East Point North Cape Argentia Bonavista Burgeo Cape Race Corner Brook Daniel's Harbour Englee Ferolle Point La Scie Port aux Basques Rocky Harbour Sagona Island St. Anthony Airport St. John's Int'l Airport St. Lawrence Stephenville Airport Twillingate Winterland Wreckhouse Cartwright Airport Mary's Harbour Grates Cove Pool's Island Marticot Island Long Pond Îles de la Madeleine Airport
Legend:
buoy Buoy
land station Land Station

Atlantic - Newfoundland Area

Another Region

What we are doing

Date modified: